Time;durP1;ratioP1;P1;durP2;ratioP2;P2;SDS_P1;SDS_P2;PMS_P1;PMS_P2;Temp;Humidity;BMP_temperature;BMP_pressure;BME280_temperature;BME280_humidity;BME280_pressure;Samples;Min_cycle;Max_cycle;Signal;HPM_P1;HPM_P2
2022/07/20 00:01:02;;;;;;;5.78;3.70;;;23.50;81.70;;;;;;5010912;28;20022;-71
2022/07/20 00:03:28;;;;;;;8.02;3.97;;;23.50;81.70;;;;;;5011503;28;20044;-72
2022/07/20 00:05:54;;;;;;;7.65;3.63;;;23.80;81.30;;;;;;5011441;28;20147;-71
2022/07/20 00:11:19;;;;;;;5.38;3.90;;;24.10;81.10;;;;;;5011359;28;20113;-71
2022/07/20 00:11:21;;;;;;;8.63;3.60;;;23.90;81.10;;;;;;5010762;28;20113;-72
2022/07/20 00:14:00;;;;;;;5.05;3.40;;;23.80;81.90;;;;;;5011505;28;20133;-71
2022/07/20 00:16:27;;;;;;;5.65;3.72;;;23.90;82.60;;;;;;5011122;28;20034;-71
2022/07/20 00:18:52;;;;;;;6.63;3.35;;;24.10;82.30;;;;;;5011541;28;20049;-72
2022/07/20 00:21:18;;;;;;;5.88;4.13;;;24.20;82.40;;;;;;5010979;28;20061;-72
2022/07/20 00:23:44;;;;;;;8.52;4.07;;;23.70;82.80;;;;;;5011434;28;20546;-72
2022/07/20 00:26:10;;;;;;;8.75;4.30;;;23.40;82.20;;;;;;5011184;28;20029;-72
2022/07/20 00:28:36;;;;;;;7.00;3.75;;;23.20;83.80;;;;;;5013008;28;20030;-71
2022/07/20 00:31:02;;;;;;;5.03;3.75;;;23.40;83.60;;;;;;5014273;28;20121;-71
2022/07/20 00:33:28;;;;;;;6.65;3.45;;;23.50;83.40;;;;;;5014840;28;20068;-72
2022/07/20 00:35:54;;;;;;;6.82;4.18;;;23.70;83.60;;;;;;5014456;28;20089;-71
2022/07/20 00:38:19;;;;;;;6.90;3.67;;;23.50;83.90;;;;;;5014696;28;20022;-71
2022/07/20 00:40:45;;;;;;;5.55;3.45;;;23.50;83.90;;;;;;5013971;28;20101;-71
2022/07/20 00:43:10;;;;;;;7.00;3.70;;;23.70;85.00;;;;;;5014680;28;20105;-71
2022/07/20 00:45:36;;;;;;;5.78;3.58;;;23.50;85.50;;;;;;5014470;28;20030;-71
2022/07/20 00:48:02;;;;;;;6.80;3.40;;;23.20;85.80;;;;;;5014574;28;20174;-71
2022/07/20 00:50:28;;;;;;;6.13;3.65;;;23.50;86.00;;;;;;5013705;28;20030;-71
2022/07/20 00:52:54;;;;;;;7.00;3.33;;;23.40;86.20;;;;;;5014537;28;20041;-71
2022/07/20 00:55:20;;;;;;;7.93;3.30;;;23.50;85.80;;;;;;5014344;28;20022;-71
2022/07/20 00:57:46;;;;;;;7.63;3.45;;;23.40;86.00;;;;;;5014317;28;20052;-71
2022/07/20 01:00:12;;;;;;;6.28;3.28;;;23.40;85.50;;;;;;5014023;28;20476;-71
2022/07/20 01:02:39;;;;;;;5.78;3.40;;;23.50;85.10;;;;;;5014037;28;20360;-71
2022/07/20 01:05:06;;;;;;;5.85;3.47;;;23.40;86.10;;;;;;5014099;28;20014;-71
2022/07/20 01:07:31;;;;;;;7.10;3.58;;;23.60;83.90;;;;;;5014358;28;20224;-71
2022/07/20 01:09:57;;;;;;;5.88;3.83;;;23.40;86.20;;;;;;5014220;28;20508;-71
2022/07/20 01:12:22;;;;;;;5.68;3.50;;;22.70;86.60;;;;;;5013458;28;20038;-71
2022/07/20 01:14:53;;;;;;;7.30;4.15;;;22.60;86.50;;;;;;5013991;28;20030;-72
2022/07/20 01:17:19;;;;;;;8.82;3.92;;;22.50;87.40;;;;;;5013935;28;20033;-72
2022/07/20 01:19:46;;;;;;;5.22;3.60;;;22.70;86.70;;;;;;5014002;28;20041;-72
2022/07/20 01:22:11;;;;;;;5.15;3.33;;;22.60;86.40;;;;;;5013286;28;20087;-72
2022/07/20 01:24:37;;;;;;;7.18;3.60;;;22.70;87.00;;;;;;5013777;28;20439;-72
2022/07/20 01:27:05;;;;;;;8.20;3.60;;;22.60;88.00;;;;;;5013918;28;20451;-72
2022/07/20 01:29:31;;;;;;;4.43;3.67;;;22.50;89.00;;;;;;5013750;28;20662;-72
2022/07/20 01:31:56;;;;;;;9.45;3.65;;;22.40;87.70;;;;;;5013123;28;20033;-72
2022/07/20 01:34:22;;;;;;;5.25;3.60;;;22.40;87.90;;;;;;5013523;28;20033;-71
2022/07/20 01:36:48;;;;;;;6.68;3.60;;;22.40;88.70;;;;;;5013562;28;20045;-72
2022/07/20 01:39:14;;;;;;;6.03;3.55;;;22.50;88.40;;;;;;5013059;28;20082;-71
2022/07/20 01:41:40;;;;;;;6.25;3.78;;;22.40;88.30;;;;;;5012682;28;20515;-71
2022/07/20 01:44:06;;;;;;;7.63;3.92;;;22.40;88.90;;;;;;5030945;28;20025;-71
2022/07/20 01:46:31;;;;;;;5.10;3.70;;;22.20;89.20;;;;;;5027236;28;20030;-72
2022/07/20 01:48:57;;;;;;;6.35;3.38;;;22.20;89.50;;;;;;5013328;28;20429;-72
2022/07/20 01:51:23;;;;;;;8.35;4.15;;;22.20;89.80;;;;;;5012683;28;20064;-72
2022/07/20 01:53:48;;;;;;;7.05;3.63;;;22.20;89.50;;;;;;5013293;28;20048;-72
2022/07/20 01:56:14;;;;;;;6.90;4.03;;;22.10;89.30;;;;;;5013232;28;20030;-72
2022/07/20 01:58:39;;;;;;;5.53;4.25;;;22.10;89.10;;;;;;5013226;28;20500;-73
2022/07/20 02:01:05;;;;;;;7.07;3.90;;;22.00;89.70;;;;;;5012615;28;20022;-72
2022/07/20 02:03:30;;;;;;;6.72;4.03;;;21.90;90.00;;;;;;5013022;28;20111;-73
2022/07/20 02:05:56;;;;;;;8.48;3.50;;;21.80;90.20;;;;;;5013097;28;20030;-72
2022/07/20 02:08:25;;;;;;;6.43;3.78;;;21.80;90.30;;;;;;5016453;28;20036;-71
2022/07/20 02:10:53;;;;;;;11.25;4.78;;;21.70;90.30;;;;;;5032132;28;20510;-72
2022/07/20 02:13:19;;;;;;;9.32;4.03;;;21.70;90.50;;;;;;5032716;28;20033;-72
2022/07/20 02:18:28;;;;;;;9.23;4.28;;;21.50;90.60;;;;;;5012949;28;20033;-72
2022/07/20 02:20:54;;;;;;;9.13;3.90;;;21.30;90.60;;;;;;5012219;28;20022;-73
2022/07/20 02:23:19;;;;;;;6.63;4.18;;;21.40;90.60;;;;;;5012871;28;20045;-73
2022/07/20 02:25:45;;;;;;;8.05;4.40;;;21.30;90.80;;;;;;5012722;28;20084;-73
2022/07/20 02:28:11;;;;;;;6.07;4.13;;;21.40;90.60;;;;;;5012718;28;20033;-74
2022/07/20 02:30:37;;;;;;;7.43;4.20;;;21.30;90.90;;;;;;5012046;28;20391;-73
2022/07/20 02:33:03;;;;;;;8.55;3.70;;;21.30;91.00;;;;;;5012647;28;20136;-71
2022/07/20 02:35:29;;;;;;;6.80;4.25;;;21.40;91.30;;;;;;5025368;28;20500;-72
2022/07/20 02:37:54;;;;;;;11.32;4.45;;;21.40;90.80;;;;;;5032214;28;20471;-73
2022/07/20 02:40:20;;;;;;;7.57;3.95;;;21.50;90.60;;;;;;5016925;28;20026;-72
2022/07/20 02:42:45;;;;;;;9.23;4.72;;;21.40;90.50;;;;;;5011079;28;20021;-73
2022/07/20 02:45:11;;;;;;;7.68;3.97;;;21.50;90.20;;;;;;5012380;28;20400;-73
2022/07/20 02:47:44;;;;;;;8.05;4.50;;;21.60;89.80;;;;;;5012118;28;20049;-72
2022/07/20 02:50:11;;;;;;;6.03;4.22;;;21.50;90.00;;;;;;5011991;28;20026;-73
2022/07/20 02:52:37;;;;;;;6.95;4.00;;;21.40;90.20;;;;;;5011930;28;20034;-73
2022/07/20 02:55:03;;;;;;;9.88;4.43;;;21.10;90.80;;;;;;5012175;28;20030;-73
2022/07/20 02:57:29;;;;;;;9.13;4.35;;;20.70;91.30;;;;;;5012081;28;20034;-73
2022/07/20 02:59:54;;;;;;;10.25;4.90;;;20.90;91.20;;;;;;5012178;28;20080;-73
2022/07/20 03:02:20;;;;;;;8.25;4.60;;;21.00;91.30;;;;;;5011520;28;20062;-73
2022/07/20 03:04:46;;;;;;;4.97;4.00;;;21.00;91.30;;;;;;5012474;28;20029;-73
2022/07/20 03:07:11;;;;;;;5.43;3.83;;;20.90;91.60;;;;;;5020235;28;20025;-73
2022/07/20 03:09:37;;;;;;;8.13;4.28;;;21.00;91.30;;;;;;5031749;28;20025;-73
2022/07/20 03:12:03;;;;;;;7.57;4.40;;;20.70;91.60;;;;;;5031025;28;20029;-72
2022/07/20 03:14:28;;;;;;;6.90;4.57;;;20.90;91.40;;;;;;5031416;28;20029;-71
2022/07/20 03:16:54;;;;;;;7.20;4.13;;;20.80;91.70;;;;;;5012736;28;20034;-75
2022/07/20 03:19:19;;;;;;;6.28;4.05;;;20.80;91.60;;;;;;5011991;28;20028;-73
2022/07/20 03:21:45;;;;;;;7.38;4.50;;;20.70;92.10;;;;;;5011607;28;20034;-73
2022/07/20 03:24:10;;;;;;;6.63;4.43;;;20.60;92.00;;;;;;5025042;28;20022;-73
2022/07/20 03:26:36;;;;;;;7.43;4.10;;;20.80;92.00;;;;;;5031531;28;20559;-73
2022/07/20 03:29:02;;;;;;;8.63;4.78;;;20.80;91.80;;;;;;5031551;28;20589;-74
2022/07/20 03:31:27;;;;;;;6.88;4.40;;;20.70;92.20;;;;;;5030998;28;20025;-75
2022/07/20 03:33:53;;;;;;;9.77;3.80;;;20.60;91.90;;;;;;5031518;28;20037;-73
2022/07/20 03:36:18;;;;;;;9.50;4.50;;;20.40;92.40;;;;;;5031352;28;20480;-74
2022/07/20 03:38:44;;;;;;;8.77;4.55;;;20.40;92.40;;;;;;5029781;28;20496;-74
2022/07/20 03:41:09;;;;;;;7.90;4.75;;;20.50;92.50;;;;;;5009948;28;20026;-74
2022/07/20 03:43:35;;;;;;;7.75;4.38;;;20.50;92.40;;;;;;5011586;28;20033;-74
2022/07/20 03:46:00;;;;;;;7.93;4.50;;;20.40;92.80;;;;;;5011569;28;20033;-74
2022/07/20 03:48:26;;;;;;;7.88;4.15;;;20.40;92.80;;;;;;5011585;28;20030;-74
2022/07/20 03:50:52;;;;;;;6.50;4.38;;;20.50;92.80;;;;;;5011099;28;20025;-75
2022/07/20 03:53:17;;;;;;;6.18;4.20;;;20.50;92.40;;;;;;5011330;28;20030;-75
2022/07/20 03:55:43;;;;;;;7.10;4.45;;;20.40;92.60;;;;;;5010150;28;20033;-76
2022/07/20 03:58:09;;;;;;;7.78;4.32;;;20.40;92.90;;;;;;5025054;28;20028;-72
2022/07/20 04:00:34;;;;;;;7.30;4.13;;;20.40;93.20;;;;;;5029311;28;20029;-73
2022/07/20 04:03:00;;;;;;;5.57;3.97;;;20.50;93.00;;;;;;5032000;28;20022;-76
2022/07/20 04:05:25;;;;;;;5.88;4.18;;;20.40;93.60;;;;;;5015476;28;20030;-76
2022/07/20 04:07:51;;;;;;;6.30;4.10;;;20.30;93.70;;;;;;5028521;28;20112;-76
2022/07/20 04:10:16;;;;;;;4.80;3.83;;;20.50;93.50;;;;;;5026882;28;20080;-76
2022/07/20 04:12:42;;;;;;;5.75;4.07;;;20.60;93.50;;;;;;5026986;28;20040;-76
2022/07/20 04:15:09;;;;;;;8.55;4.00;;;20.50;93.20;;;;;;5020556;28;20026;-76
2022/07/20 04:17:34;;;;;;;5.78;3.75;;;20.50;93.60;;;;;;5027692;28;20068;-76
2022/07/20 04:20:00;;;;;;;7.85;4.00;;;20.30;94.10;;;;;;5021809;28;20057;-76
2022/07/20 04:22:26;;;;;;;7.13;4.10;;;20.50;93.80;;;;;;5021316;28;20029;-76
2022/07/20 04:24:51;;;;;;;5.93;4.00;;;20.50;94.00;;;;;;5027017;28;20018;-75
2022/07/20 04:27:17;;;;;;;8.52;4.25;;;20.50;93.80;;;;;;5026893;28;20539;-72
2022/07/20 04:29:42;;;;;;;7.97;3.97;;;20.80;94.10;;;;;;5028168;28;20033;-73
2022/07/20 04:32:08;;;;;;;6.93;4.00;;;20.80;93.90;;;;;;5013241;28;20030;-72
2022/07/20 04:34:34;;;;;;;5.38;4.22;;;20.80;93.90;;;;;;5008219;28;20064;-72
2022/07/20 04:36:59;;;;;;;7.35;4.00;;;21.00;93.90;;;;;;5021474;28;20026;-72
2022/07/20 04:39:26;;;;;;;6.13;3.70;;;20.90;94.20;;;;;;5028050;28;20076;-72
2022/07/20 04:41:52;;;;;;;5.80;4.40;;;21.00;94.40;;;;;;5014293;28;20388;-72
2022/07/20 04:44:18;;;;;;;7.65;4.22;;;20.90;94.20;;;;;;5027931;28;20022;-72
2022/07/20 04:46:44;;;;;;;7.03;4.25;;;21.10;94.40;;;;;;5014415;28;20502;-72
2022/07/20 04:49:09;;;;;;;7.30;4.65;;;20.70;94.80;;;;;;5027823;28;20034;-71
2022/07/20 04:51:35;;;;;;;7.63;4.50;;;21.00;94.60;;;;;;5013926;28;20029;-75
2022/07/20 04:54:01;;;;;;;11.93;5.07;;;20.80;94.10;;;;;;5020101;28;20483;-75
2022/07/20 04:56:26;;;;;;;5.78;4.30;;;20.70;95.10;;;;;;5021823;28;20091;-75
2022/07/20 04:58:55;;;;;;;7.25;4.22;;;20.90;95.20;;;;;;5014487;28;20080;-75
2022/07/20 05:01:22;;;;;;;10.13;5.10;;;21.00;95.20;;;;;;5026506;28;20480;-75
2022/07/20 05:03:48;;;;;;;6.40;4.65;;;21.00;94.80;;;;;;5013501;28;20030;-74
2022/07/20 05:06:14;;;;;;;8.45;4.55;;;21.40;94.60;;;;;;5027521;28;20052;-72
2022/07/20 05:08:40;;;;;;;7.25;4.93;;;21.60;94.20;;;;;;5019556;28;20068;-72
2022/07/20 05:11:05;;;;;;;5.90;4.30;;;21.70;94.40;;;;;;5033414;28;20034;-74
2022/07/20 05:13:31;;;;;;;7.07;4.38;;;21.70;94.00;;;;;;5033828;28;20021;-74
2022/07/20 05:15:56;;;;;;;8.55;4.45;;;22.00;93.90;;;;;;5032435;28;20029;-71
2022/07/20 05:18:22;;;;;;;7.90;3.92;;;22.00;94.40;;;;;;5033934;28;20018;-72
2022/07/20 05:20:47;;;;;;;7.53;4.18;;;22.20;93.90;;;;;;5033033;28;20060;-72
2022/07/20 05:23:13;;;;;;;5.45;3.90;;;22.30;94.00;;;;;;5033630;28;20029;-72
2022/07/20 05:25:39;;;;;;;6.55;3.90;;;22.50;93.50;;;;;;5021062;28;20734;-72
2022/07/20 05:28:06;;;;;;;8.45;4.18;;;22.70;92.90;;;;;;5013772;28;20014;-72
2022/07/20 05:30:32;;;;;;;7.20;4.50;;;22.80;92.70;;;;;;5013158;28;20022;-71
2022/07/20 05:32:58;;;;;;;9.85;4.20;;;22.70;94.00;;;;;;5013685;28;20029;-72
2022/07/20 05:35:23;;;;;;;8.73;4.22;;;22.60;94.30;;;;;;5013678;28;20034;-72
2022/07/20 05:37:49;;;;;;;10.18;4.38;;;22.70;94.40;;;;;;5013426;28;20034;-72
2022/07/20 05:40:15;;;;;;;5.72;4.00;;;22.90;93.40;;;;;;5012970;28;20022;-72
2022/07/20 05:42:40;;;;;;;11.02;4.57;;;23.10;93.50;;;;;;5019176;28;20032;-72
2022/07/20 05:45:06;;;;;;;6.47;3.67;;;23.30;93.10;;;;;;5033203;28;20017;-72
2022/07/20 05:47:32;;;;;;;7.15;4.20;;;23.50;92.10;;;;;;5018942;28;20563;-72
2022/07/20 05:49:58;;;;;;;9.57;4.00;;;23.70;92.80;;;;;;5013385;28;20088;-72
2022/07/20 05:52:23;;;;;;;5.53;4.30;;;23.90;92.60;;;;;;5031665;28;20029;-72
2022/07/20 05:54:49;;;;;;;5.75;3.95;;;23.90;91.80;;;;;;5033118;28;20480;-71
2022/07/20 05:57:15;;;;;;;5.65;4.22;;;24.10;91.50;;;;;;5032995;28;20064;-72
2022/07/20 05:59:41;;;;;;;6.55;3.95;;;24.00;91.10;;;;;;5021068;28;20022;-72
2022/07/20 06:02:08;;;;;;;6.97;3.45;;;24.10;91.10;;;;;;5012550;28;20021;-72
2022/07/20 06:04:33;;;;;;;7.20;3.83;;;24.00;90.30;;;;;;5013121;28;20476;-72
2022/07/20 06:06:59;;;;;;;6.22;3.90;;;23.90;90.70;;;;;;5013139;28;20033;-72
2022/07/20 06:09:24;;;;;;;6.45;3.85;;;24.00;90.30;;;;;;5013029;28;20037;-72
2022/07/20 06:11:50;;;;;;;10.13;4.15;;;24.00;90.70;;;;;;5009244;28;20029;-72
2022/07/20 06:14:15;;;;;;;6.20;3.88;;;24.10;90.80;;;;;;5012608;28;20033;-72
2022/07/20 06:16:41;;;;;;;8.40;3.90;;;24.20;90.70;;;;;;5012582;28;20033;-72
2022/07/20 06:19:07;;;;;;;6.63;3.60;;;24.40;91.00;;;;;;5012921;28;20064;-72
2022/07/20 06:21:32;;;;;;;7.65;3.47;;;24.50;91.30;;;;;;5012156;28;20022;-72
2022/07/20 06:23:58;;;;;;;6.80;3.55;;;24.40;91.50;;;;;;5012817;28;20385;-72
2022/07/20 06:26:23;;;;;;;4.95;4.05;;;24.50;91.50;;;;;;5012539;28;20084;-72
2022/07/20 06:28:49;;;;;;;7.35;3.90;;;24.60;91.10;;;;;;5012880;28;20033;-72
2022/07/20 06:31:15;;;;;;;5.35;3.70;;;24.80;91.40;;;;;;5012197;28;20105;-73
2022/07/20 06:33:40;;;;;;;6.85;3.85;;;24.90;91.00;;;;;;5012680;28;20105;-71
2022/07/20 06:36:06;;;;;;;7.80;4.30;;;25.20;90.20;;;;;;5017065;28;20037;-71
2022/07/20 06:38:33;;;;;;;4.35;3.45;;;25.40;89.70;;;;;;5032317;28;20029;-72
2022/07/20 06:40:59;;;;;;;7.57;3.60;;;25.60;89.80;;;;;;5010703;28;20033;-72
2022/07/20 06:43:24;;;;;;;7.80;4.47;;;25.50;88.50;;;;;;5012453;28;20022;-71
2022/07/20 06:45:50;;;;;;;5.13;3.38;;;25.90;87.70;;;;;;5012323;28;20052;-71
2022/07/20 06:48:16;;;;;;;6.95;3.47;;;26.00;87.00;;;;;;5012362;28;20403;-71
2022/07/20 06:50:42;;;;;;;6.97;3.58;;;26.10;88.00;;;;;;5011715;28;20125;-71
2022/07/20 06:53:07;;;;;;;5.82;3.75;;;26.20;89.60;;;;;;5012315;28;20409;-71
2022/07/20 06:55:33;;;;;;;7.65;3.58;;;26.20;89.30;;;;;;5012365;28;20087;-71
2022/07/20 06:57:58;;;;;;;5.88;3.78;;;26.20;88.30;;;;;;5012087;28;20057;-71
2022/07/20 07:00:24;;;;;;;5.13;3.78;;;26.20;89.40;;;;;;5011671;28;20021;-71
2022/07/20 07:02:50;;;;;;;4.45;3.40;;;26.30;89.30;;;;;;5012181;28;20476;-71
2022/07/20 07:05:15;;;;;;;4.50;3.55;;;26.40;90.20;;;;;;5012048;28;20025;-71
2022/07/20 07:07:41;;;;;;;6.68;3.63;;;26.60;89.80;;;;;;5012071;28;20083;-71
2022/07/20 07:10:06;;;;;;;4.88;3.60;;;26.80;89.00;;;;;;5011965;28;20057;-71
2022/07/20 07:12:32;;;;;;;7.03;3.65;;;27.10;86.20;;;;;;5011532;28;20018;-71
2022/07/20 07:14:58;;;;;;;5.22;3.30;;;27.40;85.70;;;;;;5012021;28;20508;-71
2022/07/20 07:17:23;;;;;;;5.72;3.50;;;27.80;83.70;;;;;;5012043;28;20149;-73
2022/07/20 07:19:49;;;;;;;4.78;3.13;;;28.10;83.30;;;;;;5011897;28;20495;-72
2022/07/20 07:22:14;;;;;;;3.53;3.08;;;28.30;81.70;;;;;;5011289;28;20105;-71
2022/07/20 07:24:40;;;;;;;5.13;3.40;;;28.30;81.90;;;;;;5010607;28;20014;-71
2022/07/20 07:27:06;;;;;;;6.05;3.20;;;28.50;80.50;;;;;;5011917;28;20057;-72
2022/07/20 07:29:32;;;;;;;6.90;3.05;;;28.60;81.20;;;;;;5011893;28;20113;-72
2022/07/20 07:32:01;;;;;;;5.18;3.40;;;28.60;79.80;;;;;;5011247;28;20058;-72
2022/07/20 07:34:27;;;;;;;3.47;3.17;;;28.80;79.90;;;;;;5011710;28;20389;-71
2022/07/20 07:36:53;;;;;;;5.13;3.35;;;28.80;80.30;;;;;;5011742;28;20025;-71
2022/07/20 07:39:19;;;;;;;6.55;3.13;;;28.90;78.70;;;;;;5014862;28;20053;-71
2022/07/20 07:41:44;;;;;;;4.68;3.25;;;29.00;77.60;;;;;;5015191;28;20467;-71
2022/07/20 07:44:10;;;;;;;4.78;3.10;;;29.20;77.90;;;;;;5015878;28;20076;-72
2022/07/20 07:46:36;;;;;;;4.03;3.03;;;29.20;77.90;;;;;;5015604;28;20022;-71
2022/07/20 07:49:02;;;;;;;6.72;3.70;;;29.20;77.50;;;;;;5015606;28;20082;-70
2022/07/20 07:51:27;;;;;;;3.83;2.97;;;29.40;77.20;;;;;;5015037;28;20034;-73
2022/07/20 07:53:53;;;;;;;5.40;3.38;;;29.50;77.80;;;;;;5014311;28;20032;-72
2022/07/20 07:56:19;;;;;;;3.83;3.20;;;29.60;77.10;;;;;;5014158;28;20034;-75
2022/07/20 07:58:45;;;;;;;6.78;3.10;;;29.50;76.90;;;;;;5015522;28;20022;-74
2022/07/20 08:01:11;;;;;;;5.78;3.42;;;29.60;76.40;;;;;;5015097;28;20049;-75
2022/07/20 08:03:36;;;;;;;5.40;3.08;;;29.70;76.40;;;;;;5014154;28;20117;-73
2022/07/20 08:06:04;;;;;;;5.75;3.55;;;29.80;76.50;;;;;;5015268;28;20017;-74
2022/07/20 08:08:30;;;;;;;4.90;3.10;;;29.90;75.70;;;;;;5010859;28;20707;-74
2022/07/20 08:10:56;;;;;;;6.07;3.38;;;30.10;75.80;;;;;;5005289;28;20586;-74
2022/07/20 08:13:21;;;;;;;5.38;3.38;;;30.00;75.90;;;;;;5015374;28;20025;-73
2022/07/20 08:15:47;;;;;;;5.57;3.55;;;30.10;76.10;;;;;;5010624;28;20483;-74
2022/07/20 08:18:13;;;;;;;6.30;3.80;;;30.30;75.90;;;;;;5013378;28;20135;-74
2022/07/20 08:20:39;;;;;;;5.20;3.40;;;30.40;76.00;;;;;;5014666;28;20018;-74
2022/07/20 08:23:04;;;;;;;6.05;3.60;;;30.50;76.00;;;;;;5015085;28;20030;-74
2022/07/20 08:25:30;;;;;;;4.45;3.80;;;30.60;75.90;;;;;;5013761;28;20535;-74
2022/07/20 08:28:17;;;;;;;4.53;3.63;;;30.70;76.10;;;;;;5014984;28;20037;-74
2022/07/20 08:30:46;;;;;;;7.90;3.53;;;30.70;76.00;;;;;;5013647;28;20026;-74
2022/07/20 08:33:11;;;;;;;5.72;3.78;;;30.90;75.10;;;;;;5034714;28;20021;-74
2022/07/20 08:35:38;;;;;;;6.38;3.40;;;30.80;75.10;;;;;;5034619;28;20387;-74
2022/07/20 08:38:05;;;;;;;6.30;4.03;;;30.70;75.10;;;;;;5033222;28;20390;-74
2022/07/20 08:40:31;;;;;;;6.80;3.58;;;30.90;75.00;;;;;;5017813;28;20463;-73
2022/07/20 08:42:57;;;;;;;6.60;3.80;;;30.80;75.60;;;;;;5014783;28;20022;-73
2022/07/20 08:45:23;;;;;;;5.97;3.42;;;31.20;75.10;;;;;;5014582;28;20018;-74
2022/07/20 08:47:49;;;;;;;8.00;3.58;;;31.20;74.20;;;;;;5014633;28;20100;-74
2022/07/20 08:50:21;;;;;;;6.15;4.13;;;31.20;74.10;;;;;;5013693;28;20026;-73
2022/07/20 08:52:46;;;;;;;6.70;3.70;;;31.30;75.10;;;;;;5014361;28;20030;-73
2022/07/20 08:55:12;;;;;;;7.05;3.83;;;31.60;74.90;;;;;;5014303;28;20033;-74
2022/07/20 08:57:37;;;;;;;6.13;3.60;;;31.60;74.70;;;;;;5014377;28;20088;-74
2022/07/20 09:00:05;;;;;;;4.13;3.58;;;31.60;73.80;;;;;;5014313;28;20105;-73
2022/07/20 09:02:48;;;;;;;6.55;3.95;;;31.40;74.30;;;;;;5013672;28;20049;-73
2022/07/20 09:05:14;;;;;;;8.52;3.88;;;31.60;74.20;;;;;;5019395;28;20030;-74
2022/07/20 09:07:43;;;;;;;7.88;4.03;;;31.60;74.80;;;;;;5034132;28;20136;-74
2022/07/20 09:10:16;;;;;;;6.10;3.88;;;31.40;73.00;;;;;;5028437;28;20161;-74
2022/07/20 09:12:59;;;;;;;6.07;3.78;;;31.70;74.60;;;;;;5027183;28;20031;-73
2022/07/20 09:15:42;;;;;;;4.70;4.10;;;32.00;74.50;;;;;;5003235;28;20037;-73
2022/07/20 09:18:33;;;;;;;6.03;3.67;;;32.00;72.70;;;;;;5014090;28;20116;-73
2022/07/20 09:21:05;;;;;;;5.65;4.10;;;31.90;74.30;;;;;;5009857;28;20149;-74
2022/07/20 09:23:33;;;;;;;4.20;3.80;;;32.20;72.90;;;;;;5013952;28;20384;-73
2022/07/20 09:26:03;;;;;;;4.95;4.10;;;32.10;73.50;;;;;;5016227;28;20030;-73
2022/07/20 09:28:49;;;;;;;8.68;4.13;;;32.30;73.10;;;;;;5033649;28;20078;-74
2022/07/20 09:31:30;;;;;;;8.90;4.03;;;32.50;73.10;;;;;;5019530;28;20467;-71
2022/07/20 09:34:15;;;;;;;6.65;4.38;;;32.50;72.60;;;;;;5033520;28;20023;-72
2022/07/20 09:36:43;;;;;;;5.85;4.43;;;32.30;72.90;;;;;;5033463;28;20056;-71
2022/07/20 09:39:11;;;;;;;7.78;4.40;;;32.50;73.00;;;;;;5028537;28;20010;-71
2022/07/20 09:41:39;;;;;;;4.75;4.05;;;32.60;73.20;;;;;;5012928;28;20108;-71
2022/07/20 09:44:07;;;;;;;6.25;4.07;;;32.90;71.90;;;;;;5013466;28;20018;-71
2022/07/20 09:46:35;;;;;;;6.20;4.10;;;32.90;72.10;;;;;;5013445;28;20149;-72
2022/07/20 09:49:06;;;;;;;7.28;4.20;;;32.90;72.20;;;;;;5013299;28;20044;-71
2022/07/20 09:51:38;;;;;;;6.13;4.22;;;33.10;72.10;;;;;;5012787;28;20041;-72
2022/07/20 09:54:09;;;;;;;7.72;4.35;;;32.90;70.70;;;;;;5013245;28;20033;-71
2022/07/20 09:56:36;;;;;;;6.03;4.13;;;32.90;72.60;;;;;;5013074;28;20036;-71
2022/07/20 09:59:04;;;;;;;7.93;3.70;;;33.10;72.50;;;;;;5013351;28;20120;-71
2022/07/20 10:01:35;;;;;;;7.07;4.20;;;33.00;71.20;;;;;;5010466;28;20476;-72
2022/07/20 10:04:04;;;;;;;6.07;4.07;;;33.30;70.70;;;;;;5013326;28;20392;-72
2022/07/20 10:06:30;;;;;;;7.05;4.18;;;33.60;72.00;;;;;;5012965;28;20034;-72
2022/07/20 10:08:56;;;;;;;7.22;4.07;;;33.30;70.30;;;;;;5013074;28;20413;-71
2022/07/20 10:11:23;;;;;;;6.75;4.32;;;33.20;70.20;;;;;;5012353;28;20034;-72
2022/07/20 10:13:51;;;;;;;7.65;4.20;;;33.00;70.10;;;;;;5013001;28;20613;-72
2022/07/20 10:16:34;;;;;;;5.47;4.18;;;33.10;71.20;;;;;;5012883;28;20049;-71
2022/07/20 10:19:00;;;;;;;8.50;4.00;;;33.50;70.40;;;;;;5012917;28;20022;-72
2022/07/20 10:21:38;;;;;;;4.53;4.00;;;33.80;69.80;;;;;;5012182;28;20022;-72
2022/07/20 10:24:29;;;;;;;9.07;4.22;;;34.00;70.20;;;;;;5012776;28;20480;-72
2022/07/20 10:27:02;;;;;;;5.97;4.32;;;34.20;70.70;;;;;;5012864;28;20033;-72
2022/07/20 10:29:31;;;;;;;8.48;4.65;;;34.20;69.30;;;;;;5012685;28;20033;-71
2022/07/20 10:32:00;;;;;;;7.65;4.22;;;34.00;68.60;;;;;;5012011;28;20105;-71
2022/07/20 10:34:53;;;;;;;6.80;4.78;;;33.40;69.00;;;;;;5012480;28;20439;-72
2022/07/20 10:37:26;;;;;;;5.68;4.35;;;33.50;69.30;;;;;;5010025;28;20034;-72
2022/07/20 10:40:07;;;;;;;11.27;4.35;;;34.10;71.40;;;;;;5012494;28;20026;-72
2022/07/20 10:42:46;;;;;;;5.72;4.00;;;34.20;69.00;;;;;;5012011;28;20033;-72
2022/07/20 10:45:20;;;;;;;8.32;3.88;;;34.60;68.60;;;;;;5012439;28;20493;-72
2022/07/20 10:47:47;;;;;;;8.70;3.85;;;35.00;69.30;;;;;;5012465;28;20395;-71
2022/07/20 10:50:24;;;;;;;6.13;3.92;;;35.20;68.10;;;;;;5011991;28;20480;-72
2022/07/20 10:52:58;;;;;;;4.60;4.03;;;35.30;66.50;;;;;;5012404;28;20033;-72
2022/07/20 10:55:33;;;;;;;7.57;4.43;;;34.60;66.90;;;;;;5012244;28;20455;-71
2022/07/20 10:58:00;;;;;;;8.05;3.85;;;35.00;67.70;;;;;;5012182;28;20025;-72
2022/07/20 11:00:37;;;;;;;6.32;3.75;;;35.50;66.10;;;;;;5011504;28;20085;-72
2022/07/20 11:03:10;;;;;;;4.72;3.75;;;35.70;65.80;;;;;;5012140;28;20111;-72
2022/07/20 11:05:36;;;;;;;5.90;4.00;;;35.20;64.80;;;;;;5012078;28;20072;-72
2022/07/20 11:08:09;;;;;;;6.80;3.50;;;35.10;64.80;;;;;;5012063;28;20025;-72
2022/07/20 11:10:35;;;;;;;9.50;4.15;;;35.90;65.00;;;;;;5011597;28;20029;-72
2022/07/20 11:13:04;;;;;;;5.57;3.88;;;36.00;63.90;;;;;;5012095;28;20030;-72
2022/07/20 11:15:49;;;;;;;17.23;4.03;;;36.10;63.80;;;;;;5011910;28;20033;-71
2022/07/20 11:18:18;;;;;;;9.15;4.00;;;36.10;64.60;;;;;;5011963;28;20067;-71
2022/07/20 11:20:49;;;;;;;5.55;3.40;;;36.10;63.30;;;;;;5011382;28;20132;-71
2022/07/20 11:23:16;;;;;;;7.32;3.90;;;36.20;63.00;;;;;;5011872;28;20022;-71
2022/07/20 11:25:52;;;;;;;5.15;3.78;;;36.40;63.00;;;;;;5012025;28;20376;-71
2022/07/20 11:28:23;;;;;;;6.82;4.00;;;36.30;63.40;;;;;;5011860;28;20029;-71
2022/07/20 11:30:50;;;;;;;6.38;3.58;;;36.40;63.70;;;;;;5011168;28;20412;-71
2022/07/20 11:33:47;;;;;;;6.10;3.63;;;36.60;63.40;;;;;;5011877;28;20022;-71
2022/07/20 11:36:19;;;;;;;8.13;4.28;;;36.70;62.10;;;;;;5007392;28;20084;-71
2022/07/20 11:38:44;;;;;;;5.60;3.67;;;36.70;62.40;;;;;;5011691;28;20093;-71
2022/07/20 11:41:15;;;;;;;8.23;4.05;;;36.50;62.10;;;;;;5011158;28;20104;-71
2022/07/20 11:43:42;;;;;;;6.57;3.97;;;36.90;63.20;;;;;;5011682;28;20037;-71
2022/07/20 11:46:16;;;;;;;4.50;3.53;;;36.60;61.80;;;;;;5011881;28;20420;-71
2022/07/20 11:48:44;;;;;;;6.32;3.97;;;36.90;61.40;;;;;;5011590;28;20061;-72
2022/07/20 11:51:10;;;;;;;9.00;3.90;;;37.00;62.60;;;;;;5010999;28;20025;-71
2022/07/20 11:53:39;;;;;;;8.77;3.80;;;37.20;61.90;;;;;;5011567;28;20019;-71
2022/07/20 11:56:10;;;;;;;5.40;3.88;;;37.10;61.80;;;;;;5011386;28;20025;-71
2022/07/20 11:58:37;;;;;;;9.50;3.70;;;37.10;61.30;;;;;;5011690;28;20029;-71
2022/07/20 12:01:10;;;;;;;8.88;3.67;;;37.50;61.50;;;;;;5011081;28;20353;-71
2022/07/20 12:03:40;;;;;;;9.77;3.70;;;38.00;61.30;;;;;;5011491;28;20018;-72
2022/07/20 12:06:09;;;;;;;6.13;3.45;;;38.00;61.30;;;;;;5011501;28;20054;-71
2022/07/20 12:08:35;;;;;;;6.63;3.38;;;37.90;59.60;;;;;;5011273;28;20022;-71
2022/07/20 12:11:02;;;;;;;5.47;3.25;;;37.80;58.60;;;;;;5010930;28;20362;-72
2022/07/20 12:13:28;;;;;;;5.00;3.05;;;38.00;58.80;;;;;;5011484;28;20033;-72
2022/07/20 12:15:55;;;;;;;5.53;2.92;;;38.10;57.80;;;;;;5011336;28;20511;-72
2022/07/20 12:18:47;;;;;;;9.90;2.95;;;37.80;57.80;;;;;;5011325;28;20095;-72
2022/07/20 12:21:21;;;;;;;4.30;2.88;;;37.20;57.70;;;;;;5010796;28;20022;-71
2022/07/20 12:23:50;;;;;;;4.28;2.72;;;38.30;59.00;;;;;;5011850;28;20018;-71
2022/07/20 12:26:35;;;;;;;5.75;3.40;;;38.70;58.10;;;;;;5014801;28;20022;-71
2022/07/20 12:29:21;;;;;;;7.93;3.25;;;38.60;56.70;;;;;;5015168;28;20029;-71
2022/07/20 12:32:26;;;;;;;4.60;2.90;;;38.40;57.50;;;;;;5034205;28;20022;-71
2022/07/20 12:34:54;;;;;;;5.32;3.22;;;38.30;59.00;;;;;;5031521;28;20116;-71
2022/07/20 12:37:21;;;;;;;8.98;3.50;;;38.70;56.90;;;;;;5034594;28;20570;-71
2022/07/20 12:39:53;;;;;;;5.53;3.33;;;38.10;57.10;;;;;;5024477;28;20423;-71
2022/07/20 12:42:27;;;;;;;7.25;3.35;;;38.20;58.50;;;;;;5014051;28;20436;-71
2022/07/20 12:45:06;;;;;;;5.93;3.30;;;38.40;58.90;;;;;;5015055;28;20413;-71
2022/07/20 12:47:32;;;;;;;5.60;3.65;;;38.50;59.80;;;;;;5014487;28;20439;-71
2022/07/20 12:49:58;;;;;;;3.72;3.30;;;39.00;58.30;;;;;;5014523;28;20022;-71
2022/07/20 12:52:24;;;;;;;6.97;3.85;;;38.90;57.00;;;;;;5014064;28;20077;-72